sensor_id;sensor_type;location;lat;lon;timestamp;P1;durP1;ratioP1;P2;durP2;ratioP2
11328;SDS011;5719;42.714;23.732;2023-04-24T00:01:25;8.82;;;5.63;;
11328;SDS011;5719;42.714;23.732;2023-04-24T00:03:54;12.45;;;5.82;;
11328;SDS011;5719;42.714;23.732;2023-04-24T00:06:25;12.13;;;5.65;;
11328;SDS011;5719;42.714;23.732;2023-04-24T00:11:24;12.77;;;5.78;;
11328;SDS011;5719;42.714;23.732;2023-04-24T00:13:51;7.93;;;5.68;;
11328;SDS011;5719;42.714;23.732;2023-04-24T00:16:18;10.18;;;5.65;;
11328;SDS011;5719;42.714;23.732;2023-04-24T00:18:45;13.65;;;5.63;;
11328;SDS011;5719;42.714;23.732;2023-04-24T00:21:13;12.90;;;6.22;;
11328;SDS011;5719;42.714;23.732;2023-04-24T00:23:41;14.00;;;5.60;;
11328;SDS011;5719;42.714;23.732;2023-04-24T00:26:08;13.02;;;5.53;;
11328;SDS011;5719;42.714;23.732;2023-04-24T00:28:35;7.22;;;5.20;;
11328;SDS011;5719;42.714;23.732;2023-04-24T00:31:02;8.23;;;5.28;;
11328;SDS011;5719;42.714;23.732;2023-04-24T00:33:29;6.57;;;5.05;;
11328;SDS011;5719;42.714;23.732;2023-04-24T00:35:56;8.60;;;5.30;;
11328;SDS011;5719;42.714;23.732;2023-04-24T00:38:23;11.88;;;5.72;;
11328;SDS011;5719;42.714;23.732;2023-04-24T00:40:51;11.88;;;5.43;;
11328;SDS011;5719;42.714;23.732;2023-04-24T00:43:19;7.80;;;5.40;;
11328;SDS011;5719;42.714;23.732;2023-04-24T00:45:46;9.13;;;5.07;;
11328;SDS011;5719;42.714;23.732;2023-04-24T00:48:13;11.30;;;5.70;;
11328;SDS011;5719;42.714;23.732;2023-04-24T00:50:41;9.95;;;5.63;;
11328;SDS011;5719;42.714;23.732;2023-04-24T00:53:08;5.85;;;5.13;;
11328;SDS011;5719;42.714;23.732;2023-04-24T00:55:35;6.50;;;5.13;;
11328;SDS011;5719;42.714;23.732;2023-04-24T00:58:04;9.93;;;5.43;;
11328;SDS011;5719;42.714;23.732;2023-04-24T01:00:31;9.63;;;5.63;;
11328;SDS011;5719;42.714;23.732;2023-04-24T01:02:59;14.25;;;6.40;;
11328;SDS011;5719;42.714;23.732;2023-04-24T01:05:27;11.38;;;5.75;;
11328;SDS011;5719;42.714;23.732;2023-04-24T01:07:54;12.35;;;5.70;;
11328;SDS011;5719;42.714;23.732;2023-04-24T01:10:22;8.20;;;5.50;;
11328;SDS011;5719;42.714;23.732;2023-04-24T01:12:51;7.97;;;5.75;;
11328;SDS011;5719;42.714;23.732;2023-04-24T01:15:20;9.10;;;5.88;;
11328;SDS011;5719;42.714;23.732;2023-04-24T01:17:47;14.93;;;9.85;;
11328;SDS011;5719;42.714;23.732;2023-04-24T01:20:15;13.43;;;7.60;;
11328;SDS011;5719;42.714;23.732;2023-04-24T01:22:44;12.55;;;7.20;;
11328;SDS011;5719;42.714;23.732;2023-04-24T01:25:11;7.65;;;5.03;;
11328;SDS011;5719;42.714;23.732;2023-04-24T01:27:38;8.02;;;4.93;;
11328;SDS011;5719;42.714;23.732;2023-04-24T01:30:06;9.60;;;4.93;;
11328;SDS011;5719;42.714;23.732;2023-04-24T01:32:33;6.35;;;4.38;;
11328;SDS011;5719;42.714;23.732;2023-04-24T01:35:01;5.63;;;5.03;;
11328;SDS011;5719;42.714;23.732;2023-04-24T01:37:29;6.72;;;4.68;;
11328;SDS011;5719;42.714;23.732;2023-04-24T01:39:58;9.57;;;4.88;;
11328;SDS011;5719;42.714;23.732;2023-04-24T01:42:25;8.68;;;5.00;;
11328;SDS011;5719;42.714;23.732;2023-04-24T01:44:53;5.80;;;4.65;;
11328;SDS011;5719;42.714;23.732;2023-04-24T01:47:20;6.85;;;5.20;;
11328;SDS011;5719;42.714;23.732;2023-04-24T01:49:47;6.55;;;5.07;;
11328;SDS011;5719;42.714;23.732;2023-04-24T01:52:14;6.00;;;4.85;;
11328;SDS011;5719;42.714;23.732;2023-04-24T01:54:42;7.07;;;4.75;;
11328;SDS011;5719;42.714;23.732;2023-04-24T01:57:11;7.50;;;4.93;;
11328;SDS011;5719;42.714;23.732;2023-04-24T01:59:38;9.18;;;5.15;;
11328;SDS011;5719;42.714;23.732;2023-04-24T02:02:05;6.20;;;5.13;;
11328;SDS011;5719;42.714;23.732;2023-04-24T02:04:32;6.65;;;4.78;;
11328;SDS011;5719;42.714;23.732;2023-04-24T02:06:58;9.13;;;4.80;;
11328;SDS011;5719;42.714;23.732;2023-04-24T02:09:25;7.03;;;4.80;;
11328;SDS011;5719;42.714;23.732;2023-04-24T02:11:52;11.30;;;5.05;;
11328;SDS011;5719;42.714;23.732;2023-04-24T02:14:20;11.18;;;5.40;;
11328;SDS011;5719;42.714;23.732;2023-04-24T02:16:47;8.80;;;5.40;;
11328;SDS011;5719;42.714;23.732;2023-04-24T02:19:14;8.88;;;5.32;;
11328;SDS011;5719;42.714;23.732;2023-04-24T02:21:41;9.73;;;4.95;;
11328;SDS011;5719;42.714;23.732;2023-04-24T02:24:08;11.07;;;5.60;;
11328;SDS011;5719;42.714;23.732;2023-04-24T02:26:34;8.10;;;4.82;;
11328;SDS011;5719;42.714;23.732;2023-04-24T02:29:01;7.63;;;4.88;;
11328;SDS011;5719;42.714;23.732;2023-04-24T02:31:30;7.90;;;4.95;;
11328;SDS011;5719;42.714;23.732;2023-04-24T02:33:56;11.27;;;4.57;;
11328;SDS011;5719;42.714;23.732;2023-04-24T02:36:23;5.82;;;4.55;;
11328;SDS011;5719;42.714;23.732;2023-04-24T02:38:50;8.00;;;5.10;;
11328;SDS011;5719;42.714;23.732;2023-04-24T02:41:17;6.05;;;4.78;;
11328;SDS011;5719;42.714;23.732;2023-04-24T02:43:44;6.53;;;4.75;;
11328;SDS011;5719;42.714;23.732;2023-04-24T02:46:11;8.10;;;4.68;;
11328;SDS011;5719;42.714;23.732;2023-04-24T02:48:39;9.02;;;5.32;;
11328;SDS011;5719;42.714;23.732;2023-04-24T02:51:06;8.57;;;4.97;;
11328;SDS011;5719;42.714;23.732;2023-04-24T02:53:33;6.57;;;5.45;;
11328;SDS011;5719;42.714;23.732;2023-04-24T02:56:00;6.75;;;5.45;;
11328;SDS011;5719;42.714;23.732;2023-04-24T02:58:27;6.15;;;5.03;;
11328;SDS011;5719;42.714;23.732;2023-04-24T03:00:54;15.73;;;6.13;;
11328;SDS011;5719;42.714;23.732;2023-04-24T03:03:21;8.13;;;5.10;;
11328;SDS011;5719;42.714;23.732;2023-04-24T03:05:50;7.60;;;4.90;;
11328;SDS011;5719;42.714;23.732;2023-04-24T03:08:17;12.32;;;5.85;;
11328;SDS011;5719;42.714;23.732;2023-04-24T03:10:44;9.30;;;5.53;;
11328;SDS011;5719;42.714;23.732;2023-04-24T03:13:11;7.55;;;5.50;;
11328;SDS011;5719;42.714;23.732;2023-04-24T03:15:37;12.75;;;5.93;;
11328;SDS011;5719;42.714;23.732;2023-04-24T03:18:04;8.30;;;5.25;;
11328;SDS011;5719;42.714;23.732;2023-04-24T03:20:31;10.70;;;5.70;;
11328;SDS011;5719;42.714;23.732;2023-04-24T03:22:59;6.38;;;5.22;;
11328;SDS011;5719;42.714;23.732;2023-04-24T03:25:26;8.98;;;5.25;;
11328;SDS011;5719;42.714;23.732;2023-04-24T03:27:53;10.65;;;5.00;;
11328;SDS011;5719;42.714;23.732;2023-04-24T03:30:20;8.70;;;5.35;;
11328;SDS011;5719;42.714;23.732;2023-04-24T03:32:47;9.80;;;5.00;;
11328;SDS011;5719;42.714;23.732;2023-04-24T03:35:14;12.10;;;5.82;;
11328;SDS011;5719;42.714;23.732;2023-04-24T03:37:41;7.88;;;5.70;;
11328;SDS011;5719;42.714;23.732;2023-04-24T03:40:10;7.65;;;5.25;;
11328;SDS011;5719;42.714;23.732;2023-04-24T03:42:37;7.15;;;5.18;;
11328;SDS011;5719;42.714;23.732;2023-04-24T03:45:04;8.75;;;5.50;;
11328;SDS011;5719;42.714;23.732;2023-04-24T03:47:32;8.30;;;5.47;;
11328;SDS011;5719;42.714;23.732;2023-04-24T03:49:58;8.75;;;5.82;;
11328;SDS011;5719;42.714;23.732;2023-04-24T03:52:25;6.53;;;5.47;;
11328;SDS011;5719;42.714;23.732;2023-04-24T03:54:52;6.82;;;5.53;;
11328;SDS011;5719;42.714;23.732;2023-04-24T03:57:21;8.77;;;5.50;;
11328;SDS011;5719;42.714;23.732;2023-04-24T03:59:48;7.20;;;5.00;;
11328;SDS011;5719;42.714;23.732;2023-04-24T04:02:15;11.98;;;5.70;;
11328;SDS011;5719;42.714;23.732;2023-04-24T04:04:42;8.43;;;5.15;;
11328;SDS011;5719;42.714;23.732;2023-04-24T04:07:09;8.73;;;5.45;;
11328;SDS011;5719;42.714;23.732;2023-04-24T04:09:38;7.63;;;5.35;;
11328;SDS011;5719;42.714;23.732;2023-04-24T04:12:05;12.30;;;4.95;;
11328;SDS011;5719;42.714;23.732;2023-04-24T04:14:33;8.68;;;5.10;;
11328;SDS011;5719;42.714;23.732;2023-04-24T04:17:00;5.93;;;5.15;;
11328;SDS011;5719;42.714;23.732;2023-04-24T04:19:27;7.28;;;5.40;;
11328;SDS011;5719;42.714;23.732;2023-04-24T04:21:53;12.75;;;5.22;;
11328;SDS011;5719;42.714;23.732;2023-04-24T04:24:21;10.95;;;5.18;;
11328;SDS011;5719;42.714;23.732;2023-04-24T04:26:49;7.57;;;5.47;;
11328;SDS011;5719;42.714;23.732;2023-04-24T04:29:16;12.32;;;5.10;;
11328;SDS011;5719;42.714;23.732;2023-04-24T04:31:44;9.02;;;5.75;;
11328;SDS011;5719;42.714;23.732;2023-04-24T04:34:11;11.75;;;6.40;;
11328;SDS011;5719;42.714;23.732;2023-04-24T04:36:39;8.27;;;5.25;;
11328;SDS011;5719;42.714;23.732;2023-04-24T04:39:06;7.15;;;5.82;;
11328;SDS011;5719;42.714;23.732;2023-04-24T04:41:33;10.20;;;5.68;;
11328;SDS011;5719;42.714;23.732;2023-04-24T04:44:00;6.05;;;5.45;;
11328;SDS011;5719;42.714;23.732;2023-04-24T04:46:30;8.75;;;5.38;;
11328;SDS011;5719;42.714;23.732;2023-04-24T04:49:00;8.57;;;5.13;;
11328;SDS011;5719;42.714;23.732;2023-04-24T04:51:28;11.23;;;6.32;;
11328;SDS011;5719;42.714;23.732;2023-04-24T04:53:55;12.88;;;5.68;;
11328;SDS011;5719;42.714;23.732;2023-04-24T04:56:22;10.75;;;5.35;;
11328;SDS011;5719;42.714;23.732;2023-04-24T04:58:49;10.50;;;5.90;;
11328;SDS011;5719;42.714;23.732;2023-04-24T05:01:15;6.75;;;5.60;;
11328;SDS011;5719;42.714;23.732;2023-04-24T05:03:42;6.38;;;4.97;;
11328;SDS011;5719;42.714;23.732;2023-04-24T05:06:11;8.07;;;4.97;;
11328;SDS011;5719;42.714;23.732;2023-04-24T05:08:38;8.32;;;5.40;;
11328;SDS011;5719;42.714;23.732;2023-04-24T05:11:04;12.80;;;4.65;;
11328;SDS011;5719;42.714;23.732;2023-04-24T05:13:32;10.95;;;5.05;;
11328;SDS011;5719;42.714;23.732;2023-04-24T05:15:59;11.82;;;4.55;;
11328;SDS011;5719;42.714;23.732;2023-04-24T05:18:26;8.02;;;4.32;;
11328;SDS011;5719;42.714;23.732;2023-04-24T05:20:53;8.77;;;4.45;;
11328;SDS011;5719;42.714;23.732;2023-04-24T05:23:21;9.07;;;5.20;;
11328;SDS011;5719;42.714;23.732;2023-04-24T05:25:48;9.60;;;4.50;;
11328;SDS011;5719;42.714;23.732;2023-04-24T05:28:15;12.82;;;5.10;;
11328;SDS011;5719;42.714;23.732;2023-04-24T05:30:42;6.47;;;4.22;;
11328;SDS011;5719;42.714;23.732;2023-04-24T05:33:08;7.75;;;4.80;;
11328;SDS011;5719;42.714;23.732;2023-04-24T05:35:35;11.75;;;5.25;;
11328;SDS011;5719;42.714;23.732;2023-04-24T05:38:02;6.50;;;4.95;;
11328;SDS011;5719;42.714;23.732;2023-04-24T05:40:30;10.45;;;4.20;;
11328;SDS011;5719;42.714;23.732;2023-04-24T05:42:57;7.45;;;4.13;;
11328;SDS011;5719;42.714;23.732;2023-04-24T05:45:24;4.90;;;3.50;;
11328;SDS011;5719;42.714;23.732;2023-04-24T05:47:52;10.95;;;3.63;;
11328;SDS011;5719;42.714;23.732;2023-04-24T05:50:19;5.18;;;3.92;;
11328;SDS011;5719;42.714;23.732;2023-04-24T05:52:46;9.57;;;3.58;;
11328;SDS011;5719;42.714;23.732;2023-04-24T05:55:12;5.38;;;3.60;;
11328;SDS011;5719;42.714;23.732;2023-04-24T05:57:43;7.43;;;3.83;;
11328;SDS011;5719;42.714;23.732;2023-04-24T06:00:11;8.02;;;3.63;;
11328;SDS011;5719;42.714;23.732;2023-04-24T06:02:38;8.18;;;4.10;;
11328;SDS011;5719;42.714;23.732;2023-04-24T06:05:06;6.20;;;3.35;;
11328;SDS011;5719;42.714;23.732;2023-04-24T06:07:33;11.13;;;3.97;;
11328;SDS011;5719;42.714;23.732;2023-04-24T06:10:00;5.90;;;3.40;;
11328;SDS011;5719;42.714;23.732;2023-04-24T06:12:27;8.13;;;3.45;;
11328;SDS011;5719;42.714;23.732;2023-04-24T06:14:56;9.27;;;4.10;;
11328;SDS011;5719;42.714;23.732;2023-04-24T06:17:22;9.57;;;4.20;;
11328;SDS011;5719;42.714;23.732;2023-04-24T06:19:49;8.25;;;3.72;;
11328;SDS011;5719;42.714;23.732;2023-04-24T06:22:16;9.73;;;3.90;;
11328;SDS011;5719;42.714;23.732;2023-04-24T06:25:01;8.35;;;3.30;;
11328;SDS011;5719;42.714;23.732;2023-04-24T06:27:29;7.00;;;3.72;;
11328;SDS011;5719;42.714;23.732;2023-04-24T06:29:58;6.32;;;3.33;;
11328;SDS011;5719;42.714;23.732;2023-04-24T06:32:25;9.15;;;3.80;;
11328;SDS011;5719;42.714;23.732;2023-04-24T06:34:53;6.47;;;3.65;;
11328;SDS011;5719;42.714;23.732;2023-04-24T06:37:20;10.30;;;3.50;;
11328;SDS011;5719;42.714;23.732;2023-04-24T06:39:47;6.28;;;3.22;;
11328;SDS011;5719;42.714;23.732;2023-04-24T06:42:14;5.63;;;3.40;;
11328;SDS011;5719;42.714;23.732;2023-04-24T06:44:41;4.47;;;3.20;;
11328;SDS011;5719;42.714;23.732;2023-04-24T06:47:10;6.13;;;3.03;;
11328;SDS011;5719;42.714;23.732;2023-04-24T06:49:38;7.70;;;3.08;;
11328;SDS011;5719;42.714;23.732;2023-04-24T06:52:07;4.57;;;3.00;;
11328;SDS011;5719;42.714;23.732;2023-04-24T06:54:34;4.20;;;2.75;;
11328;SDS011;5719;42.714;23.732;2023-04-24T06:57:01;5.68;;;2.80;;
11328;SDS011;5719;42.714;23.732;2023-04-24T06:59:30;5.10;;;2.72;;
11328;SDS011;5719;42.714;23.732;2023-04-24T07:01:57;7.18;;;3.13;;
11328;SDS011;5719;42.714;23.732;2023-04-24T07:04:25;5.00;;;2.70;;
11328;SDS011;5719;42.714;23.732;2023-04-24T07:06:53;6.55;;;2.80;;
11328;SDS011;5719;42.714;23.732;2023-04-24T07:09:21;5.57;;;3.33;;
11328;SDS011;5719;42.714;23.732;2023-04-24T07:11:49;4.57;;;2.72;;
11328;SDS011;5719;42.714;23.732;2023-04-24T07:14:16;5.82;;;2.85;;
11328;SDS011;5719;42.714;23.732;2023-04-24T07:16:43;5.85;;;2.90;;
11328;SDS011;5719;42.714;23.732;2023-04-24T07:19:11;4.00;;;2.63;;
11328;SDS011;5719;42.714;23.732;2023-04-24T07:21:39;4.25;;;2.75;;
11328;SDS011;5719;42.714;23.732;2023-04-24T07:24:06;5.15;;;2.53;;
11328;SDS011;5719;42.714;23.732;2023-04-24T07:26:36;4.88;;;2.70;;
11328;SDS011;5719;42.714;23.732;2023-04-24T07:29:04;3.72;;;3.25;;
11328;SDS011;5719;42.714;23.732;2023-04-24T07:31:31;6.88;;;2.70;;
11328;SDS011;5719;42.714;23.732;2023-04-24T07:33:58;4.47;;;3.17;;
11328;SDS011;5719;42.714;23.732;2023-04-24T07:36:25;57.65;;;4.75;;
11328;SDS011;5719;42.714;23.732;2023-04-24T07:38:55;7.57;;;2.80;;
11328;SDS011;5719;42.714;23.732;2023-04-24T07:41:22;8.40;;;2.80;;
11328;SDS011;5719;42.714;23.732;2023-04-24T07:43:49;4.82;;;2.45;;
11328;SDS011;5719;42.714;23.732;2023-04-24T07:46:17;5.18;;;2.60;;
11328;SDS011;5719;42.714;23.732;2023-04-24T07:48:45;3.83;;;2.83;;
11328;SDS011;5719;42.714;23.732;2023-04-24T07:51:13;7.65;;;3.05;;
11328;SDS011;5719;42.714;23.732;2023-04-24T07:53:40;6.90;;;2.80;;
11328;SDS011;5719;42.714;23.732;2023-04-24T07:56:09;6.43;;;3.53;;
11328;SDS011;5719;42.714;23.732;2023-04-24T07:58:36;4.13;;;2.78;;
11328;SDS011;5719;42.714;23.732;2023-04-24T08:01:03;5.90;;;2.95;;
11328;SDS011;5719;42.714;23.732;2023-04-24T08:03:30;7.15;;;2.58;;
11328;SDS011;5719;42.714;23.732;2023-04-24T08:05:58;7.60;;;3.10;;
11328;SDS011;5719;42.714;23.732;2023-04-24T08:08:25;3.28;;;2.92;;
11328;SDS011;5719;42.714;23.732;2023-04-24T08:10:52;8.60;;;2.70;;
11328;SDS011;5719;42.714;23.732;2023-04-24T08:13:21;5.05;;;3.58;;
11328;SDS011;5719;42.714;23.732;2023-04-24T08:15:48;4.28;;;3.00;;
11328;SDS011;5719;42.714;23.732;2023-04-24T08:18:15;4.57;;;2.67;;
11328;SDS011;5719;42.714;23.732;2023-04-24T08:20:42;5.32;;;2.88;;
11328;SDS011;5719;42.714;23.732;2023-04-24T08:23:10;3.20;;;2.50;;
11328;SDS011;5719;42.714;23.732;2023-04-24T08:25:37;5.85;;;3.28;;
11328;SDS011;5719;42.714;23.732;2023-04-24T08:28:05;8.35;;;2.80;;
11328;SDS011;5719;42.714;23.732;2023-04-24T08:30:36;5.50;;;2.90;;
11328;SDS011;5719;42.714;23.732;2023-04-24T08:33:04;7.15;;;2.90;;
11328;SDS011;5719;42.714;23.732;2023-04-24T08:35:31;4.90;;;3.30;;
11328;SDS011;5719;42.714;23.732;2023-04-24T08:37:58;5.50;;;2.95;;
11328;SDS011;5719;42.714;23.732;2023-04-24T08:40:27;4.18;;;2.72;;
11328;SDS011;5719;42.714;23.732;2023-04-24T08:42:55;4.68;;;2.70;;
11328;SDS011;5719;42.714;23.732;2023-04-24T08:45:23;6.05;;;2.97;;
11328;SDS011;5719;42.714;23.732;2023-04-24T08:47:53;4.97;;;2.60;;
11328;SDS011;5719;42.714;23.732;2023-04-24T08:50:21;6.13;;;3.05;;
11328;SDS011;5719;42.714;23.732;2023-04-24T08:52:49;5.28;;;2.83;;
11328;SDS011;5719;42.714;23.732;2023-04-24T08:55:18;4.80;;;2.72;;
11328;SDS011;5719;42.714;23.732;2023-04-24T08:57:46;6.30;;;3.00;;
11328;SDS011;5719;42.714;23.732;2023-04-24T09:00:18;3.25;;;2.90;;
11328;SDS011;5719;42.714;23.732;2023-04-24T09:02:46;8.18;;;2.83;;
11328;SDS011;5719;42.714;23.732;2023-04-24T09:05:17;4.68;;;2.70;;
11328;SDS011;5719;42.714;23.732;2023-04-24T09:07:45;7.40;;;2.90;;
11328;SDS011;5719;42.714;23.732;2023-04-24T09:10:20;9.02;;;2.63;;
11328;SDS011;5719;42.714;23.732;2023-04-24T09:12:48;4.65;;;2.80;;
11328;SDS011;5719;42.714;23.732;2023-04-24T09:15:16;4.53;;;2.60;;
11328;SDS011;5719;42.714;23.732;2023-04-24T09:17:45;4.55;;;3.10;;
11328;SDS011;5719;42.714;23.732;2023-04-24T09:20:12;6.35;;;3.05;;
11328;SDS011;5719;42.714;23.732;2023-04-24T09:22:41;5.50;;;2.88;;
11328;SDS011;5719;42.714;23.732;2023-04-24T09:25:09;7.30;;;2.65;;
11328;SDS011;5719;42.714;23.732;2023-04-24T09:27:41;6.38;;;2.83;;
11328;SDS011;5719;42.714;23.732;2023-04-24T09:30:10;3.38;;;2.70;;
11328;SDS011;5719;42.714;23.732;2023-04-24T09:32:37;4.57;;;2.88;;
11328;SDS011;5719;42.714;23.732;2023-04-24T09:35:05;2.83;;;2.40;;
11328;SDS011;5719;42.714;23.732;2023-04-24T09:37:37;8.95;;;2.63;;
11328;SDS011;5719;42.714;23.732;2023-04-24T09:40:12;3.45;;;3.15;;
11328;SDS011;5719;42.714;23.732;2023-04-24T09:42:43;2.95;;;2.63;;
11328;SDS011;5719;42.714;23.732;2023-04-24T09:45:11;5.70;;;2.80;;
11328;SDS011;5719;42.714;23.732;2023-04-24T09:47:38;6.35;;;2.47;;
11328;SDS011;5719;42.714;23.732;2023-04-24T09:50:12;3.05;;;2.35;;
11328;SDS011;5719;42.714;23.732;2023-04-24T09:52:41;2.97;;;2.63;;
11328;SDS011;5719;42.714;23.732;2023-04-24T09:55:14;4.18;;;2.50;;
11328;SDS011;5719;42.714;23.732;2023-04-24T09:57:47;4.63;;;2.50;;
11328;SDS011;5719;42.714;23.732;2023-04-24T10:00:17;5.20;;;2.70;;
11328;SDS011;5719;42.714;23.732;2023-04-24T10:02:49;5.25;;;2.45;;
11328;SDS011;5719;42.714;23.732;2023-04-24T10:05:17;6.68;;;2.70;;
11328;SDS011;5719;42.714;23.732;2023-04-24T10:07:44;6.43;;;2.80;;
11328;SDS011;5719;42.714;23.732;2023-04-24T10:10:11;5.10;;;2.70;;
11328;SDS011;5719;42.714;23.732;2023-04-24T10:12:40;6.10;;;2.95;;
11328;SDS011;5719;42.714;23.732;2023-04-24T10:15:09;4.78;;;3.00;;
11328;SDS011;5719;42.714;23.732;2023-04-24T10:17:39;4.00;;;3.35;;
11328;SDS011;5719;42.714;23.732;2023-04-24T10:20:07;4.35;;;2.78;;
11328;SDS011;5719;42.714;23.732;2023-04-24T10:22:36;3.97;;;2.60;;
11328;SDS011;5719;42.714;23.732;2023-04-24T10:25:04;5.75;;;2.67;;
11328;SDS011;5719;42.714;23.732;2023-04-24T10:27:32;4.53;;;2.88;;
11328;SDS011;5719;42.714;23.732;2023-04-24T10:30:03;6.72;;;3.25;;
11328;SDS011;5719;42.714;23.732;2023-04-24T10:32:31;6.15;;;3.13;;
11328;SDS011;5719;42.714;23.732;2023-04-24T10:34:58;4.30;;;2.88;;
11328;SDS011;5719;42.714;23.732;2023-04-24T10:37:25;6.05;;;2.85;;
11328;SDS011;5719;42.714;23.732;2023-04-24T10:39:53;4.95;;;3.13;;
11328;SDS011;5719;42.714;23.732;2023-04-24T10:42:21;8.05;;;2.90;;
11328;SDS011;5719;42.714;23.732;2023-04-24T10:44:48;3.25;;;2.80;;
11328;SDS011;5719;42.714;23.732;2023-04-24T10:47:16;3.45;;;2.85;;
11328;SDS011;5719;42.714;23.732;2023-04-24T10:49:43;3.72;;;2.70;;
11328;SDS011;5719;42.714;23.732;2023-04-24T10:52:10;3.17;;;2.78;;
11328;SDS011;5719;42.714;23.732;2023-04-24T10:54:41;4.82;;;2.83;;
11328;SDS011;5719;42.714;23.732;2023-04-24T10:57:26;3.50;;;2.45;;
11328;SDS011;5719;42.714;23.732;2023-04-24T11:00:12;2.42;;;2.22;;
11328;SDS011;5719;42.714;23.732;2023-04-24T11:02:42;3.42;;;2.30;;
11328;SDS011;5719;42.714;23.732;2023-04-24T11:05:14;3.67;;;2.38;;
11328;SDS011;5719;42.714;23.732;2023-04-24T11:10:38;3.47;;;2.50;;
11328;SDS011;5719;42.714;23.732;2023-04-24T11:13:06;3.42;;;2.92;;
11328;SDS011;5719;42.714;23.732;2023-04-24T11:15:34;7.13;;;2.53;;
11328;SDS011;5719;42.714;23.732;2023-04-24T11:18:03;3.50;;;2.78;;
11328;SDS011;5719;42.714;23.732;2023-04-24T11:20:30;2.65;;;2.30;;
11328;SDS011;5719;42.714;23.732;2023-04-24T11:22:58;4.45;;;2.60;;
11328;SDS011;5719;42.714;23.732;2023-04-24T11:25:31;3.72;;;2.17;;
11328;SDS011;5719;42.714;23.732;2023-04-24T11:28:05;3.83;;;2.20;;
11328;SDS011;5719;42.714;23.732;2023-04-24T11:30:32;4.30;;;2.30;;
11328;SDS011;5719;42.714;23.732;2023-04-24T11:33:04;4.15;;;2.17;;
11328;SDS011;5719;42.714;23.732;2023-04-24T11:35:35;4.40;;;2.38;;
11328;SDS011;5719;42.714;23.732;2023-04-24T11:38:05;6.15;;;2.47;;
11328;SDS011;5719;42.714;23.732;2023-04-24T11:40:33;6.68;;;2.25;;
11328;SDS011;5719;42.714;23.732;2023-04-24T11:43:00;6.00;;;2.22;;
11328;SDS011;5719;42.714;23.732;2023-04-24T11:45:29;4.32;;;2.35;;
11328;SDS011;5719;42.714;23.732;2023-04-24T11:47:57;5.53;;;2.50;;
11328;SDS011;5719;42.714;23.732;2023-04-24T11:50:26;4.63;;;2.53;;
11328;SDS011;5719;42.714;23.732;2023-04-24T11:52:54;6.13;;;2.58;;
11328;SDS011;5719;42.714;23.732;2023-04-24T11:55:22;3.85;;;2.47;;
11328;SDS011;5719;42.714;23.732;2023-04-24T11:57:52;4.65;;;2.47;;
11328;SDS011;5719;42.714;23.732;2023-04-24T12:00:22;5.00;;;2.65;;
11328;SDS011;5719;42.714;23.732;2023-04-24T12:02:50;4.80;;;2.50;;
11328;SDS011;5719;42.714;23.732;2023-04-24T12:05:21;5.10;;;2.30;;
11328;SDS011;5719;42.714;23.732;2023-04-24T12:07:52;6.65;;;3.10;;
11328;SDS011;5719;42.714;23.732;2023-04-24T12:10:20;7.25;;;2.88;;
11328;SDS011;5719;42.714;23.732;2023-04-24T12:12:49;4.95;;;2.80;;
11328;SDS011;5719;42.714;23.732;2023-04-24T12:15:16;6.22;;;3.00;;
11328;SDS011;5719;42.714;23.732;2023-04-24T12:17:44;7.13;;;3.10;;
11328;SDS011;5719;42.714;23.732;2023-04-24T12:31:51;6.32;;;2.30;;
11328;SDS011;5719;42.714;23.732;2023-04-24T12:34:18;4.63;;;1.80;;
11328;SDS011;5719;42.714;23.732;2023-04-24T12:36:45;2.50;;;1.90;;
11328;SDS011;5719;42.714;23.732;2023-04-24T12:39:15;3.20;;;2.90;;
11328;SDS011;5719;42.714;23.732;2023-04-24T12:41:50;5.78;;;4.07;;
11328;SDS011;5719;42.714;23.732;2023-04-24T12:44:28;7.88;;;4.95;;
11328;SDS011;5719;42.714;23.732;2023-04-24T12:46:57;8.00;;;4.38;;
11328;SDS011;5719;42.714;23.732;2023-04-24T12:49:24;4.57;;;3.47;;
11328;SDS011;5719;42.714;23.732;2023-04-24T12:51:51;5.45;;;3.38;;
11328;SDS011;5719;42.714;23.732;2023-04-24T12:54:18;6.07;;;3.10;;
11328;SDS011;5719;42.714;23.732;2023-04-24T12:56:45;3.47;;;2.20;;
11328;SDS011;5719;42.714;23.732;2023-04-24T12:59:12;6.45;;;2.20;;
11328;SDS011;5719;42.714;23.732;2023-04-24T13:01:39;4.20;;;2.20;;
11328;SDS011;5719;42.714;23.732;2023-04-24T13:04:07;2.42;;;2.20;;
11328;SDS011;5719;42.714;23.732;2023-04-24T13:06:34;2.38;;;2.20;;
11328;SDS011;5719;42.714;23.732;2023-04-24T13:09:01;3.17;;;1.83;;
11328;SDS011;5719;42.714;23.732;2023-04-24T13:11:28;2.42;;;1.90;;
11328;SDS011;5719;42.714;23.732;2023-04-24T13:13:55;3.92;;;2.22;;
11328;SDS011;5719;42.714;23.732;2023-04-24T13:16:22;2.55;;;2.17;;
11328;SDS011;5719;42.714;23.732;2023-04-24T13:18:49;2.28;;;1.98;;
11328;SDS011;5719;42.714;23.732;2023-04-24T13:21:17;4.25;;;1.95;;
11328;SDS011;5719;42.714;23.732;2023-04-24T13:23:44;4.38;;;1.88;;
11328;SDS011;5719;42.714;23.732;2023-04-24T13:26:11;2.75;;;2.03;;
11328;SDS011;5719;42.714;23.732;2023-04-24T13:28:38;5.50;;;1.85;;
11328;SDS011;5719;42.714;23.732;2023-04-24T13:31:05;2.00;;;1.90;;
11328;SDS011;5719;42.714;23.732;2023-04-24T13:33:32;2.55;;;2.00;;
11328;SDS011;5719;42.714;23.732;2023-04-24T13:35:59;10.18;;;2.35;;
11328;SDS011;5719;42.714;23.732;2023-04-24T13:38:27;4.50;;;2.47;;
11328;SDS011;5719;42.714;23.732;2023-04-24T13:40:54;6.05;;;2.60;;
11328;SDS011;5719;42.714;23.732;2023-04-24T13:43:21;2.28;;;2.08;;
11328;SDS011;5719;42.714;23.732;2023-04-24T13:45:48;2.88;;;2.13;;
11328;SDS011;5719;42.714;23.732;2023-04-24T13:48:15;2.72;;;2.20;;
11328;SDS011;5719;42.714;23.732;2023-04-24T13:50:43;2.42;;;2.22;;
11328;SDS011;5719;42.714;23.732;2023-04-24T13:53:13;7.00;;;2.40;;
11328;SDS011;5719;42.714;23.732;2023-04-24T13:55:41;5.40;;;2.30;;
11328;SDS011;5719;42.714;23.732;2023-04-24T13:58:08;3.05;;;2.50;;
11328;SDS011;5719;42.714;23.732;2023-04-24T14:00:35;6.93;;;2.50;;
11328;SDS011;5719;42.714;23.732;2023-04-24T14:03:02;2.25;;;2.13;;
11328;SDS011;5719;42.714;23.732;2023-04-24T14:05:29;4.80;;;2.10;;
11328;SDS011;5719;42.714;23.732;2023-04-24T14:07:56;4.15;;;1.98;;
11328;SDS011;5719;42.714;23.732;2023-04-24T14:10:23;2.67;;;1.98;;
11328;SDS011;5719;42.714;23.732;2023-04-24T14:12:53;4.05;;;2.10;;
11328;SDS011;5719;42.714;23.732;2023-04-24T14:15:20;3.97;;;2.10;;
11328;SDS011;5719;42.714;23.732;2023-04-24T14:17:47;2.58;;;2.30;;
11328;SDS011;5719;42.714;23.732;2023-04-24T14:20:15;4.43;;;2.00;;
11328;SDS011;5719;42.714;23.732;2023-04-24T14:22:42;3.50;;;2.00;;
11328;SDS011;5719;42.714;23.732;2023-04-24T14:25:09;5.03;;;2.10;;
11328;SDS011;5719;42.714;23.732;2023-04-24T14:27:36;2.58;;;2.00;;
11328;SDS011;5719;42.714;23.732;2023-04-24T14:30:04;7.53;;;2.50;;
11328;SDS011;5719;42.714;23.732;2023-04-24T14:32:32;2.90;;;2.20;;
11328;SDS011;5719;42.714;23.732;2023-04-24T14:35:00;2.50;;;2.30;;
11328;SDS011;5719;42.714;23.732;2023-04-24T14:37:27;3.28;;;1.80;;
11328;SDS011;5719;42.714;23.732;2023-04-24T14:39:53;1.70;;;1.60;;
11328;SDS011;5719;42.714;23.732;2023-04-24T14:42:20;2.78;;;2.17;;
11328;SDS011;5719;42.714;23.732;2023-04-24T14:44:47;2.25;;;2.10;;
11328;SDS011;5719;42.714;23.732;2023-04-24T14:47:16;3.08;;;2.10;;
11328;SDS011;5719;42.714;23.732;2023-04-24T14:49:46;2.40;;;2.20;;
11328;SDS011;5719;42.714;23.732;2023-04-24T14:52:13;2.30;;;2.10;;
11328;SDS011;5719;42.714;23.732;2023-04-24T14:54:41;2.67;;;1.80;;
11328;SDS011;5719;42.714;23.732;2023-04-24T14:57:08;3.50;;;2.70;;
11328;SDS011;5719;42.714;23.732;2023-04-24T14:59:35;3.35;;;2.20;;
11328;SDS011;5719;42.714;23.732;2023-04-24T15:02:02;2.70;;;2.28;;
11328;SDS011;5719;42.714;23.732;2023-04-24T15:04:30;3.30;;;2.20;;
11328;SDS011;5719;42.714;23.732;2023-04-24T15:06:57;5.60;;;2.63;;